createdAt,value
2023-04-24T00:01:55.216Z,4.20
2023-04-24T00:04:28.964Z,3.97
2023-04-24T00:07:02.776Z,4.17
2023-04-24T00:09:38.618Z,4.13
2023-04-24T00:12:14.273Z,4.73
2023-04-24T00:14:51.444Z,4.70
2023-04-24T00:17:25.513Z,5.30
2023-04-24T00:20:00.564Z,4.70
2023-04-24T00:22:33.831Z,4.53
2023-04-24T00:25:10.018Z,4.60
2023-04-24T00:27:43.750Z,4.53
2023-04-24T00:30:17.600Z,4.63
2023-04-24T00:32:51.077Z,5.10
2023-04-24T00:35:24.308Z,4.80
2023-04-24T00:37:57.809Z,4.77
2023-04-24T00:40:33.993Z,5.27
2023-04-24T00:43:09.342Z,4.93
2023-04-24T00:45:45.192Z,5.00
2023-04-24T00:48:19.733Z,5.50
2023-04-24T00:50:52.829Z,5.30
2023-04-24T00:53:27.456Z,5.03
2023-04-24T00:56:03.376Z,4.90
2023-04-24T00:58:37.131Z,4.93
2023-04-24T01:01:10.777Z,4.70
2023-04-24T01:03:44.833Z,5.40
2023-04-24T01:06:18.999Z,5.33
2023-04-24T01:08:54.328Z,5.13
2023-04-24T01:11:30.536Z,5.40
2023-04-24T01:14:04.772Z,7.90
2023-04-24T01:16:38.400Z,8.70
2023-04-24T01:19:12.366Z,7.47
2023-04-24T01:21:46.394Z,7.70
2023-04-24T01:24:21.942Z,6.47
2023-04-24T01:26:55.987Z,6.77
2023-04-24T01:29:30.587Z,7.10
2023-04-24T01:32:04.676Z,7.07
2023-04-24T01:34:38.790Z,7.17
2023-04-24T01:37:16.554Z,5.73
2023-04-24T01:39:51.594Z,5.37
2023-04-24T01:42:25.279Z,5.00
2023-04-24T01:44:59.383Z,4.77
2023-04-24T01:47:33.006Z,5.10
2023-04-24T01:50:06.840Z,5.03
2023-04-24T01:52:40.526Z,5.27
2023-04-24T01:55:18.556Z,5.47
2023-04-24T01:57:52.406Z,4.70
2023-04-24T02:00:26.361Z,5.20
2023-04-24T02:03:00.600Z,5.50
2023-04-24T02:05:34.676Z,5.17
2023-04-24T02:08:11.311Z,5.37
2023-04-24T02:10:46.821Z,5.30
2023-04-24T02:13:21.160Z,5.00
2023-04-24T02:15:56.250Z,4.90
2023-04-24T02:18:30.741Z,5.40
2023-04-24T02:21:04.195Z,5.03
2023-04-24T02:23:37.980Z,4.83
2023-04-24T02:26:14.156Z,5.77
2023-04-24T02:28:47.877Z,5.80
2023-04-24T02:31:20.880Z,5.43
2023-04-24T02:33:55.084Z,5.60
2023-04-24T02:36:28.652Z,5.53
2023-04-24T02:39:03.580Z,5.50
2023-04-24T02:41:41.084Z,5.30
2023-04-24T02:44:15.899Z,5.20
2023-04-24T02:46:50.060Z,4.00
2023-04-24T02:49:23.522Z,4.83
2023-04-24T02:51:57.131Z,5.17
2023-04-24T02:54:33.580Z,5.30
2023-04-24T02:57:08.507Z,4.30
2023-04-24T02:59:42.847Z,3.60
2023-04-24T03:02:16.413Z,4.07
2023-04-24T03:04:50.366Z,5.10
2023-04-24T03:07:23.835Z,4.30
2023-04-24T03:09:58.077Z,4.30
2023-04-24T03:12:35.516Z,4.70
2023-04-24T03:15:09.564Z,5.13
2023-04-24T03:17:44.069Z,5.63
2023-04-24T03:20:19.778Z,5.00
2023-04-24T03:22:55.339Z,6.50
2023-04-24T03:25:28.710Z,6.00
2023-04-24T03:28:05.452Z,5.90
2023-04-24T03:30:51.217Z,7.00
2023-04-24T03:33:25.564Z,6.30
2023-04-24T03:36:07.514Z,6.87
2023-04-24T03:38:45.427Z,6.70
2023-04-24T03:41:44.189Z,7.17
2023-04-24T03:44:23.810Z,7.40
2023-04-24T03:46:57.385Z,8.03
2023-04-24T03:49:30.831Z,7.20
2023-04-24T03:52:04.817Z,7.73
2023-04-24T03:54:38.443Z,8.00
2023-04-24T03:57:12.902Z,6.93
2023-04-24T03:59:58.177Z,6.83
2023-04-24T04:02:32.647Z,6.40
2023-04-24T04:05:06.460Z,6.33
2023-04-24T04:07:40.296Z,6.10
2023-04-24T04:10:15.029Z,6.90
2023-04-24T04:12:48.058Z,6.73
2023-04-24T04:15:23.372Z,7.10
2023-04-24T04:17:56.906Z,6.50
2023-04-24T04:20:30.658Z,6.83
2023-04-24T04:23:04.200Z,6.60
2023-04-24T04:25:49.560Z,6.63
2023-04-24T04:28:25.511Z,6.90
2023-04-24T04:31:00.882Z,6.50
2023-04-24T04:33:34.187Z,6.00
2023-04-24T04:36:07.972Z,6.60
2023-04-24T04:38:45.162Z,7.00
2023-04-24T04:41:49.129Z,5.83
2023-04-24T04:44:24.599Z,5.80
2023-04-24T04:47:01.657Z,6.00
2023-04-24T04:49:38.432Z,5.23
2023-04-24T04:52:16.149Z,5.90
2023-04-24T04:54:49.986Z,6.10
2023-04-24T04:57:23.890Z,5.47
2023-04-24T04:59:58.185Z,5.63
2023-04-24T05:02:46.716Z,5.37
2023-04-24T05:05:21.334Z,5.97
2023-04-24T05:07:56.200Z,6.30
2023-04-24T05:10:29.449Z,6.17
2023-04-24T05:13:03.149Z,5.80
2023-04-24T05:15:36.980Z,5.57
2023-04-24T05:18:12.068Z,5.80
2023-04-24T05:20:46.008Z,6.00
2023-04-24T05:23:20.379Z,6.73
2023-04-24T05:25:57.982Z,6.27
2023-04-24T05:28:32.077Z,6.77
2023-04-24T05:31:13.049Z,6.27
2023-04-24T05:33:48.479Z,5.80
2023-04-24T05:36:22.187Z,6.20
2023-04-24T05:38:55.781Z,5.73
2023-04-24T05:41:29.207Z,6.03
2023-04-24T05:44:03.215Z,6.40
2023-04-24T05:46:37.179Z,5.33
2023-04-24T05:49:13.162Z,5.27
2023-04-24T05:51:47.403Z,6.60
2023-04-24T05:54:22.380Z,6.40
2023-04-24T05:56:58.470Z,6.47
2023-04-24T05:59:43.688Z,6.10
2023-04-24T06:02:18.309Z,5.73
2023-04-24T06:04:54.700Z,6.47
2023-04-24T06:07:28.795Z,6.13
2023-04-24T06:10:03.121Z,6.33
2023-04-24T06:12:42.734Z,6.60
2023-04-24T06:15:22.423Z,6.10
2023-04-24T06:18:03.441Z,6.30
2023-04-24T06:20:38.275Z,6.30
2023-04-24T06:23:11.207Z,6.33
2023-04-24T06:25:45.148Z,6.50
2023-04-24T06:28:19.195Z,6.50
2023-04-24T06:30:52.829Z,6.90
2023-04-24T06:33:26.597Z,6.47
2023-04-24T06:36:01.851Z,6.40
2023-04-24T06:38:35.990Z,6.90
2023-04-24T06:41:09.608Z,6.80
2023-04-24T06:43:42.859Z,6.00
2023-04-24T06:46:16.336Z,6.63
2023-04-24T06:48:49.820Z,6.73
2023-04-24T06:51:25.800Z,6.30
2023-04-24T06:54:00.913Z,6.37
2023-04-24T06:56:37.008Z,6.17
2023-04-24T06:59:13.508Z,6.83
2023-04-24T07:01:47.420Z,7.10
2023-04-24T07:04:23.638Z,7.87
2023-04-24T07:07:09.462Z,7.43
2023-04-24T07:09:48.073Z,8.07
2023-04-24T07:12:23.507Z,7.47
2023-04-24T07:14:57.217Z,7.63
2023-04-24T07:17:30.496Z,7.67
2023-04-24T07:20:03.514Z,8.57
2023-04-24T07:22:39.403Z,8.83
2023-04-24T07:25:14.212Z,8.10
2023-04-24T07:27:51.577Z,7.63
2023-04-24T07:30:24.938Z,8.27
2023-04-24T07:32:58.678Z,7.90
2023-04-24T07:35:32.324Z,8.87
2023-04-24T07:38:08.008Z,7.87
2023-04-24T07:40:42.056Z,7.70
2023-04-24T07:43:20.423Z,7.00
2023-04-24T07:45:53.990Z,7.70
2023-04-24T07:48:29.622Z,7.43
2023-04-24T07:51:03.254Z,7.73
2023-04-24T07:53:38.411Z,7.30
2023-04-24T07:56:12.234Z,7.70
2023-04-24T07:58:45.893Z,6.90
2023-04-24T08:01:19.524Z,7.90
2023-04-24T08:03:53.475Z,7.33
2023-04-24T08:06:28.401Z,7.20
2023-04-24T08:09:03.901Z,7.30
2023-04-24T08:11:38.657Z,7.50
2023-04-24T08:14:11.683Z,6.67
2023-04-24T08:16:45.665Z,6.90
2023-04-24T08:19:21.737Z,6.10
2023-04-24T08:22:00.516Z,6.80
2023-04-24T08:24:36.267Z,6.70
2023-04-24T08:27:10.226Z,6.27
2023-04-24T08:29:43.563Z,6.10
2023-04-24T08:32:16.997Z,6.00
2023-04-24T08:34:50.699Z,6.23
2023-04-24T08:37:23.668Z,7.17
2023-04-24T08:39:59.227Z,6.67
2023-04-24T08:42:35.976Z,6.93
2023-04-24T08:45:12.999Z,6.70
2023-04-24T08:47:47.594Z,7.20
2023-04-24T08:50:21.369Z,7.13
2023-04-24T08:52:56.220Z,6.50
2023-04-24T08:55:32.430Z,6.60
2023-04-24T08:58:06.318Z,6.17
2023-04-24T09:00:39.734Z,6.17
2023-04-24T09:03:13.242Z,6.27
2023-04-24T09:05:50.031Z,6.80
2023-04-24T09:08:24.426Z,6.10
2023-04-24T09:11:04.755Z,5.60
2023-04-24T09:13:38.101Z,6.47
2023-04-24T09:16:11.540Z,7.27
2023-04-24T09:18:44.947Z,6.67
2023-04-24T09:21:18.756Z,6.20
2023-04-24T09:24:01.956Z,6.00
2023-04-24T09:26:40.418Z,5.67
2023-04-24T09:29:18.785Z,5.23
2023-04-24T09:31:52.297Z,6.03
2023-04-24T09:34:28.608Z,6.40
2023-04-24T09:37:02.171Z,12.53
2023-04-24T09:42:34.379Z,13.67
2023-04-24T09:45:14.621Z,14.87
2023-04-24T09:47:49.420Z,12.97
2023-04-24T09:50:23.800Z,12.17
2023-04-24T09:53:03.193Z,13.73
2023-04-24T09:55:36.441Z,16.20
2023-04-24T09:58:12.846Z,16.63
2023-04-24T10:00:46.080Z,17.30
2023-04-24T10:03:19.933Z,16.23
2023-04-24T10:05:53.788Z,17.23
2023-04-24T10:08:27.679Z,16.23
2023-04-24T10:11:02.078Z,16.67
2023-04-24T10:13:38.854Z,16.70
2023-04-24T10:16:13.073Z,16.10
2023-04-24T10:18:46.692Z,16.87
2023-04-24T10:21:21.241Z,16.97
2023-04-24T10:23:55.738Z,16.47
2023-04-24T10:26:29.550Z,15.90
2023-04-24T10:29:05.823Z,16.43
2023-04-24T10:31:39.835Z,15.50
2023-04-24T10:34:14.278Z,17.00
2023-04-24T10:36:54.338Z,15.63
2023-04-24T10:39:29.806Z,14.13
2023-04-24T10:42:03.319Z,14.90
2023-04-24T10:44:46.549Z,16.40
2023-04-24T10:47:20.667Z,16.40
2023-04-24T10:49:57.739Z,15.37
2023-04-24T10:52:50.333Z,15.53
2023-04-24T10:55:47.484Z,13.23
2023-04-24T10:58:22.054Z,13.30
2023-04-24T11:01:04.270Z,13.70
2023-04-24T11:03:44.298Z,13.47
2023-04-24T11:06:18.736Z,13.07
2023-04-24T11:08:53.018Z,13.20
2023-04-24T11:11:27.978Z,12.93
2023-04-24T11:14:12.102Z,12.97
2023-04-24T11:16:57.898Z,11.80
2023-04-24T11:19:32.596Z,12.40
2023-04-24T11:22:07.942Z,11.73
2023-04-24T11:24:45.769Z,11.90
2023-04-24T11:27:25.573Z,11.57
2023-04-24T11:30:07.640Z,11.50
2023-04-24T11:32:43.915Z,11.47
2023-04-24T11:35:20.993Z,11.77
2023-04-24T11:40:33.158Z,13.33
2023-04-24T11:43:08.905Z,15.23
2023-04-24T11:45:42.885Z,16.40
2023-04-24T11:48:23.618Z,16.07
2023-04-24T11:50:57.834Z,16.27
2023-04-24T11:53:31.267Z,15.47
2023-04-24T11:56:08.924Z,15.30
2023-04-24T11:58:42.719Z,15.60
2023-04-24T12:01:16.064Z,15.63
2023-04-24T12:03:54.399Z,16.07
2023-04-24T12:06:28.283Z,16.77
2023-04-24T12:09:08.044Z,16.07
2023-04-24T12:11:59.248Z,17.17
2023-04-24T12:14:34.303Z,16.50
2023-04-24T12:17:09.462Z,17.87
2023-04-24T12:19:52.006Z,18.50
2023-04-24T12:22:25.226Z,19.17
2023-04-24T12:25:09.258Z,19.67
2023-04-24T12:27:42.679Z,20.80
2023-04-24T12:30:20.001Z,20.60
2023-04-24T12:32:57.503Z,22.70
2023-04-24T12:35:37.008Z,20.43
2023-04-24T12:38:16.486Z,22.23
2023-04-24T12:40:49.875Z,21.93
2023-04-24T12:43:24.235Z,23.03
2023-04-24T12:45:58.901Z,22.07
2023-04-24T12:48:32.168Z,22.27
2023-04-24T12:51:07.860Z,24.17
2023-04-24T12:53:43.920Z,24.03
2023-04-24T12:56:22.261Z,22.80
2023-04-24T12:58:59.614Z,24.33
2023-04-24T13:01:33.206Z,25.23
2023-04-24T13:04:06.965Z,25.33
2023-04-24T13:06:42.073Z,26.33
2023-04-24T13:09:15.267Z,24.63
2023-04-24T13:11:48.339Z,23.50
2023-04-24T13:14:21.262Z,23.40
2023-04-24T13:16:59.445Z,22.60
2023-04-24T13:19:33.160Z,21.87
2023-04-24T13:22:09.661Z,21.87
2023-04-24T13:24:44.197Z,18.60
2023-04-24T13:27:17.985Z,18.77
2023-04-24T13:29:51.495Z,20.30
2023-04-24T13:32:24.764Z,19.20
2023-04-24T13:34:58.951Z,19.03
2023-04-24T13:37:34.400Z,18.00
2023-04-24T13:40:09.524Z,18.20
2023-04-24T13:42:44.561Z,19.03
2023-04-24T13:48:01.498Z,18.40
2023-04-24T13:50:34.865Z,16.93
2023-04-24T13:53:10.539Z,18.53
2023-04-24T13:55:46.120Z,17.73
2023-04-24T13:58:19.405Z,18.13
2023-04-24T14:00:52.708Z,19.63
2023-04-24T14:03:26.366Z,19.30
2023-04-24T14:06:01.591Z,18.63
2023-04-24T14:08:37.981Z,19.80
2023-04-24T14:11:11.518Z,18.83
2023-04-24T14:13:46.577Z,19.53
2023-04-24T14:16:21.045Z,18.20
2023-04-24T14:18:55.518Z,17.33
2023-04-24T14:21:28.989Z,24.30
2023-04-24T14:24:05.966Z,21.63
2023-04-24T14:26:41.763Z,17.20
2023-04-24T14:29:15.481Z,15.93
2023-04-24T14:31:49.337Z,14.57
2023-04-24T14:34:22.697Z,14.57
2023-04-24T14:36:56.742Z,15.50
2023-04-24T14:39:34.283Z,14.13
2023-04-24T14:42:07.408Z,14.13
2023-04-24T14:44:42.956Z,14.40
2023-04-24T14:47:19.365Z,13.67
2023-04-24T14:49:56.062Z,13.60
2023-04-24T14:52:29.585Z,12.90
2023-04-24T14:55:04.880Z,12.90
2023-04-24T14:57:38.619Z,14.70
2023-04-24T15:00:13.687Z,14.60
2023-04-24T15:02:47.033Z,15.40
2023-04-24T15:05:21.122Z,14.47
2023-04-24T15:07:55.196Z,13.70
2023-04-24T15:10:39.304Z,14.23
2023-04-24T15:13:12.598Z,13.70
2023-04-24T15:15:46.466Z,13.23
2023-04-24T15:18:19.630Z,13.83
2023-04-24T15:20:52.538Z,14.10
2023-04-24T15:23:25.499Z,15.70
2023-04-24T15:26:01.175Z,13.93
2023-04-24T15:28:38.113Z,14.17
2023-04-24T15:31:11.631Z,15.57
2023-04-24T15:33:45.698Z,15.60
2023-04-24T15:36:19.232Z,14.50
2023-04-24T15:38:58.320Z,14.70
2023-04-24T15:41:33.831Z,15.07
2023-04-24T15:44:06.720Z,14.13
2023-04-24T15:46:40.794Z,15.10
2023-04-24T15:49:14.856Z,14.60
2023-04-24T15:51:48.514Z,15.80
2023-04-24T15:54:22.606Z,15.23
2023-04-24T15:56:58.477Z,16.33
2023-04-24T15:59:32.836Z,15.93
2023-04-24T16:02:07.390Z,16.70
2023-04-24T16:04:41.092Z,15.77
2023-04-24T16:07:15.190Z,17.57
2023-04-24T16:09:48.688Z,16.57
2023-04-24T16:12:24.744Z,16.80
2023-04-24T16:14:58.102Z,17.27
2023-04-24T16:17:31.147Z,15.70
2023-04-24T16:20:04.711Z,15.13
2023-04-24T16:22:38.311Z,16.40
2023-04-24T16:25:12.725Z,16.77
2023-04-24T16:27:48.364Z,14.87
2023-04-24T16:30:22.442Z,15.63
2023-04-24T16:32:56.021Z,16.63
2023-04-24T16:35:29.478Z,17.10
2023-04-24T16:38:03.533Z,17.03
2023-04-24T16:40:36.436Z,15.67
2023-04-24T16:43:15.345Z,16.37
2023-04-24T16:45:49.355Z,17.13
2023-04-24T16:48:23.047Z,18.17
2023-04-24T16:50:56.781Z,17.73
2023-04-24T16:53:30.507Z,18.77
2023-04-24T16:56:04.326Z,19.80
2023-04-24T16:58:39.114Z,20.30
2023-04-24T17:01:12.136Z,18.37
2023-04-24T17:03:45.679Z,16.63
2023-04-24T17:06:19.131Z,15.00
2023-04-24T17:08:52.894Z,14.70
2023-04-24T17:11:26.528Z,15.63
2023-04-24T17:14:02.736Z,15.23
2023-04-24T17:16:36.617Z,15.47
2023-04-24T17:19:10.815Z,13.77
2023-04-24T17:21:44.508Z,13.53
2023-04-24T17:24:18.018Z,12.23
2023-04-24T17:26:53.079Z,11.67
2023-04-24T17:29:29.695Z,11.97
2023-04-24T17:32:02.815Z,11.53
2023-04-24T17:34:35.800Z,11.40
2023-04-24T17:37:09.220Z,10.67
2023-04-24T17:39:42.962Z,10.80
2023-04-24T17:42:16.762Z,9.77
2023-04-24T17:44:52.098Z,9.40
2023-04-24T17:47:27.632Z,9.57
2023-04-24T17:50:00.981Z,9.63
2023-04-24T17:52:34.268Z,10.27
2023-04-24T17:55:07.857Z,10.20
2023-04-24T17:57:41.483Z,10.57
2023-04-24T18:00:18.311Z,11.80
2023-04-24T18:02:55.214Z,11.97
2023-04-24T18:05:29.414Z,11.93
2023-04-24T18:08:03.469Z,12.33
2023-04-24T18:10:37.947Z,13.10
2023-04-24T18:13:11.476Z,12.67
2023-04-24T18:15:46.818Z,13.60
2023-04-24T18:18:20.577Z,13.17
2023-04-24T18:20:53.917Z,12.70
2023-04-24T18:23:27.253Z,13.37
2023-04-24T18:26:00.614Z,13.40
2023-04-24T18:28:36.184Z,14.83
2023-04-24T18:31:11.494Z,13.53
2023-04-24T18:33:44.786Z,13.13
2023-04-24T18:36:18.100Z,13.97
2023-04-24T18:38:51.582Z,14.13
2023-04-24T18:41:25.186Z,14.40
2023-04-24T18:44:00.559Z,13.57
2023-04-24T18:46:39.022Z,13.80
2023-04-24T18:49:12.477Z,13.03
2023-04-24T18:51:53.889Z,12.37
2023-04-24T18:54:27.803Z,13.10
2023-04-24T18:57:01.017Z,13.13
2023-04-24T18:59:34.296Z,12.77
2023-04-24T19:02:09.888Z,13.60
2023-04-24T19:04:43.758Z,13.17
2023-04-24T19:07:17.114Z,13.17
2023-04-24T19:09:50.645Z,13.27
2023-04-24T19:12:24.271Z,14.23
2023-04-24T19:14:59.500Z,14.07
2023-04-24T19:17:35.220Z,13.93
2023-04-24T19:20:09.295Z,12.67
2023-04-24T19:22:42.756Z,13.50
2023-04-24T19:25:16.308Z,13.40
2023-04-24T19:27:49.655Z,13.30
2023-04-24T19:30:23.263Z,13.57
2023-04-24T19:32:58.398Z,13.37
2023-04-24T19:35:31.724Z,12.50
2023-04-24T19:38:04.982Z,13.03
2023-04-24T19:40:38.285Z,14.13
2023-04-24T19:43:11.793Z,13.40
2023-04-24T19:45:45.228Z,13.77
2023-04-24T19:48:20.724Z,14.40
2023-04-24T19:50:54.451Z,13.70
2023-04-24T19:53:27.292Z,13.67
2023-04-24T19:56:03.814Z,13.37
2023-04-24T19:58:37.311Z,14.63
2023-04-24T20:01:10.551Z,13.43
2023-04-24T20:03:46.248Z,14.30
2023-04-24T20:06:20.029Z,15.40
2023-04-24T20:08:53.729Z,16.33
2023-04-24T20:11:27.085Z,15.53
2023-04-24T20:14:00.813Z,15.97
2023-04-24T20:16:34.105Z,15.23
2023-04-24T20:19:09.297Z,16.67
2023-04-24T20:21:42.198Z,15.50
2023-04-24T20:24:15.351Z,15.50
2023-04-24T20:26:48.218Z,16.03
2023-04-24T20:29:21.148Z,16.23
2023-04-24T20:31:54.068Z,16.97
2023-04-24T20:34:29.587Z,18.60
2023-04-24T20:37:05.123Z,18.90
2023-04-24T20:39:38.395Z,18.63
2023-04-24T20:42:12.480Z,18.70
2023-04-24T20:44:47.169Z,19.10
2023-04-24T20:47:20.364Z,18.37
2023-04-24T20:49:55.944Z,20.23
2023-04-24T20:52:29.190Z,19.73
2023-04-24T20:55:02.841Z,21.40
2023-04-24T20:57:36.665Z,22.00
2023-04-24T21:00:12.935Z,22.57
2023-04-24T21:02:46.351Z,23.77
2023-04-24T21:05:21.156Z,24.17
2023-04-24T21:07:57.093Z,23.90
2023-04-24T21:10:30.734Z,25.43
2023-04-24T21:13:03.592Z,24.77
2023-04-24T21:15:37.127Z,25.43
2023-04-24T21:18:10.593Z,25.57
2023-04-24T21:20:45.643Z,25.30
2023-04-24T21:23:18.686Z,26.33
2023-04-24T21:25:52.050Z,27.77
2023-04-24T21:28:26.474Z,28.47
2023-04-24T21:30:59.222Z,27.47
2023-04-24T21:33:32.060Z,26.87
2023-04-24T21:36:07.192Z,27.07
2023-04-24T21:38:41.390Z,28.03
2023-04-24T21:41:15.130Z,27.83
2023-04-24T21:46:22.096Z,27.17
2023-04-24T21:48:55.565Z,28.23
2023-04-24T21:51:30.549Z,27.70
2023-04-24T21:54:03.467Z,26.83
2023-04-24T21:56:36.965Z,27.30
2023-04-24T21:59:10.748Z,28.03
2023-04-24T22:01:44.083Z,28.00
2023-04-24T22:04:17.524Z,26.93
2023-04-24T22:06:53.208Z,26.83
2023-04-24T22:09:26.204Z,27.73
2023-04-24T22:11:59.412Z,26.20
2023-04-24T22:14:32.525Z,27.87
2023-04-24T22:17:05.943Z,26.57
2023-04-24T22:19:39.597Z,27.23
2023-04-24T22:22:14.853Z,27.13
2023-04-24T22:24:47.730Z,26.23
2023-04-24T22:27:20.898Z,27.40
2023-04-24T22:29:54.329Z,27.13
2023-04-24T22:32:27.371Z,26.13
2023-04-24T22:35:00.469Z,27.07
2023-04-24T22:37:35.722Z,27.30
2023-04-24T22:40:09.702Z,27.43
2023-04-24T22:42:43.383Z,27.03
2023-04-24T22:45:17.143Z,26.50
2023-04-24T22:47:50.315Z,25.97
2023-04-24T22:50:24.035Z,26.57
2023-04-24T22:52:59.140Z,25.20
2023-04-24T22:55:32.326Z,26.83
2023-04-24T22:58:06.308Z,25.83
2023-04-24T23:00:40.671Z,25.23
2023-04-24T23:03:14.407Z,25.40
2023-04-24T23:05:47.815Z,27.37
2023-04-24T23:08:22.480Z,24.90
2023-04-24T23:10:55.214Z,26.37
2023-04-24T23:13:28.995Z,25.73
2023-04-24T23:16:01.882Z,26.03
2023-04-24T23:18:35.524Z,25.73
2023-04-24T23:21:09.566Z,25.03
2023-04-24T23:23:44.822Z,25.83
2023-04-24T23:26:18.285Z,24.77
2023-04-24T23:28:51.719Z,26.53
2023-04-24T23:31:25.297Z,25.07
2023-04-24T23:34:01.390Z,24.90
2023-04-24T23:36:35.628Z,25.93
2023-04-24T23:39:10.593Z,25.40
2023-04-24T23:41:44.344Z,24.40
2023-04-24T23:44:17.622Z,25.27
2023-04-24T23:46:50.499Z,25.23
2023-04-24T23:49:23.761Z,24.50
2023-04-24T23:51:57.187Z,25.23
2023-04-24T23:54:32.278Z,23.53
2023-04-24T23:57:06.017Z,24.77
2023-04-24T23:59:40.257Z,24.17
